Time;durP1;ratioP1;P1;durP2;ratioP2;P2;SDS_P1;SDS_P2;PMS_P1;PMS_P2;Temp;Humidity;BMP_temperature;BMP_pressure;BME280_temperature;BME280_humidity;BME280_pressure;Samples;Min_cycle;Max_cycle;Signal;HPM_P1;HPM_P2
2022/05/04 00:00:16;;;;;;;15.80;11.93;;;;;;;8.95;96.24;100971.16;701295;28;1227;-45
2022/05/04 00:00:36;;;;;;;15.85;11.98;;;;;;;8.95;96.46;100968.56;700856;28;1295;-46
2022/05/04 00:00:57;;;;;;;16.67;12.23;;;;;;;9.01;96.31;100973.81;699060;28;981;-44
2022/05/04 00:01:17;;;;;;;15.93;11.77;;;;;;;9.06;95.34;100974.72;700479;27;4489;-45
2022/05/04 00:01:37;;;;;;;14.33;10.90;;;;;;;9.02;95.28;100973.81;701033;28;970;-45
2022/05/04 00:01:58;;;;;;;16.23;11.40;;;;;;;8.97;95.22;100967.72;699138;28;923;-45
2022/05/04 00:02:18;;;;;;;14.20;11.10;;;;;;;8.97;93.80;100972.03;699205;28;1251;-44
2022/05/04 00:02:40;;;;;;;14.93;11.27;;;;;;;8.94;95.47;100972.03;699890;28;1092;-45
2022/05/04 00:03:00;;;;;;;16.15;12.35;;;;;;;8.81;96.84;100964.09;696599;28;1573;-45
2022/05/04 00:03:20;;;;;;;15.50;12.23;;;;;;;8.72;97.68;100969.25;696635;28;1319;-45
2022/05/04 00:03:41;;;;;;;16.17;12.40;;;;;;;8.68;98.07;100964.88;696619;28;1256;-46
2022/05/04 00:04:01;;;;;;;17.60;12.60;;;;;;;8.62;97.94;100973.50;695392;28;1909;-44
2022/05/04 00:04:22;;;;;;;16.30;11.60;;;;;;;8.64;96.95;100974.41;696664;28;4469;-45
2022/05/04 00:04:42;;;;;;;14.97;11.57;;;;;;;8.66;97.99;100974.44;696702;28;953;-44
2022/05/04 00:05:03;;;;;;;14.63;11.40;;;;;;;8.65;97.24;100970.06;698139;28;1066;-44
2022/05/04 00:05:23;;;;;;;14.48;11.32;;;;;;;8.66;97.36;100967.47;698817;28;1089;-45
2022/05/04 00:05:44;;;;;;;16.33;12.13;;;;;;;8.65;96.37;100965.75;698939;28;1006;-44
2022/05/04 00:06:07;;;;;;;17.83;12.43;;;;;;;8.66;96.65;100971.81;700517;28;1122;-45
2022/05/04 00:06:28;;;;;;;17.63;12.65;;;;;;;8.67;96.72;100968.34;699821;28;1012;-45
2022/05/04 00:06:48;;;;;;;17.63;12.48;;;;;;;8.68;96.91;100970.09;698099;28;984;-44
2022/05/04 00:07:09;;;;;;;17.40;12.73;;;;;;;8.67;97.54;100966.63;698952;28;4628;-46
2022/05/04 00:07:29;;;;;;;16.77;12.85;;;;;;;8.68;97.11;100972.69;698242;28;1082;-44
2022/05/04 00:07:49;;;;;;;16.23;12.47;;;;;;;8.70;97.01;100970.97;697790;28;882;-46
2022/05/04 00:08:10;;;;;;;18.03;13.13;;;;;;;8.73;97.01;100970.13;697822;28;1354;-45
2022/05/04 00:08:30;;;;;;;16.98;12.93;;;;;;;8.72;97.04;100969.25;698023;28;1051;-44
2022/05/04 00:08:50;;;;;;;16.50;12.70;;;;;;;8.78;95.63;100969.31;700349;28;1046;-45
2022/05/04 00:09:11;;;;;;;16.40;12.48;;;;;;;8.81;94.74;100969.31;699015;28;1785;-45
2022/05/04 00:09:31;;;;;;;16.23;12.40;;;;;;;8.81;95.47;100977.16;700565;28;1291;-45
2022/05/04 00:09:51;;;;;;;16.10;12.40;;;;;;;8.81;95.36;100971.06;698997;28;998;-44
2022/05/04 00:10:13;;;;;;;16.53;12.27;;;;;;;8.88;94.31;100972.84;700329;27;4249;-45
2022/05/04 00:10:34;;;;;;;15.70;12.48;;;;;;;8.92;95.08;100976.38;699649;28;1173;-46
2022/05/04 00:10:55;;;;;;;16.65;12.85;;;;;;;8.88;96.58;100972.00;698616;28;1300;-45
2022/05/04 00:11:15;;;;;;;16.57;12.43;;;;;;;8.83;97.29;100965.00;700189;28;1084;-45
2022/05/04 00:11:36;;;;;;;15.57;12.48;;;;;;;8.79;98.12;100967.56;698935;28;1057;-47
2022/05/04 00:11:56;;;;;;;15.75;12.32;;;;;;;8.76;97.76;100972.75;698421;28;1288;-47
2022/05/04 00:12:17;;;;;;;16.40;13.00;;;;;;;8.73;98.32;100973.59;700048;28;1060;-45
2022/05/04 00:12:37;;;;;;;18.17;13.00;;;;;;;8.73;98.46;100973.59;699353;28;1426;-47
2022/05/04 00:12:59;;;;;;;16.38;12.40;;;;;;;8.65;98.44;100968.34;699099;28;1001;-44
2022/05/04 00:13:19;;;;;;;16.23;12.65;;;;;;;8.63;97.72;100971.81;695442;28;4594;-45
2022/05/04 00:13:39;;;;;;;15.63;12.10;;;;;;;8.62;97.50;100975.25;696964;28;1175;-45
2022/05/04 00:14:00;;;;;;;15.63;12.10;;;;;;;8.67;97.77;100969.22;696652;28;1080;-46
2022/05/04 00:14:20;;;;;;;16.97;12.07;;;;;;;8.67;97.86;100970.97;690212;28;1201;-45
2022/05/04 00:14:41;;;;;;;15.63;12.27;;;;;;;8.59;99.57;100970.03;691986;28;1225;-46
2022/05/04 00:15:02;;;;;;;15.40;12.10;;;;;;;8.53;99.54;100976.06;695566;28;1077;-45
2022/05/04 00:15:23;;;;;;;17.13;12.40;;;;;;;8.47;100.00;100971.69;697739;28;1120;-44
2022/05/04 00:15:43;;;;;;;17.20;12.18;;;;;;;8.46;99.34;100975.13;697074;28;995;-46
2022/05/04 00:16:04;;;;;;;18.92;12.38;;;;;;;8.42;99.45;100967.22;697407;28;1118;-45
2022/05/04 00:16:25;;;;;;;16.65;12.07;;;;;;;8.38;98.75;100968.94;698164;28;4315;-47
2022/05/04 00:16:45;;;;;;;15.53;11.93;;;;;;;8.42;98.60;100973.31;699214;28;3855;-45
2022/05/04 00:17:05;;;;;;;16.60;12.20;;;;;;;8.44;98.30;100968.97;699139;28;1168;-45
2022/05/04 00:17:26;;;;;;;16.17;12.20;;;;;;;8.45;97.78;100972.53;698847;28;1141;-45
2022/05/04 00:17:46;;;;;;;16.03;12.00;;;;;;;8.46;97.72;100967.31;698664;28;1089;-46
2022/05/04 00:18:06;;;;;;;16.00;12.20;;;;;;;8.49;97.67;100974.28;699135;28;1037;-45
2022/05/04 00:18:30;;;;;;;16.57;12.60;;;;;;;8.51;96.95;100970.84;697064;28;1657;-45
2022/05/04 00:18:50;;;;;;;16.65;12.05;;;;;;;8.49;97.32;100969.94;699982;28;1001;-44
2022/05/04 00:19:11;;;;;;;18.40;12.43;;;;;;;8.49;96.86;100974.28;700722;27;4530;-44
2022/05/04 00:19:31;;;;;;;16.58;12.35;;;;;;;8.50;97.71;100971.69;701175;28;1141;-44
2022/05/04 00:19:51;;;;;;;16.97;12.57;;;;;;;8.51;97.31;100973.44;698430;28;1035;-45
2022/05/04 00:20:12;;;;;;;15.43;12.50;;;;;;;8.51;96.06;100968.25;701556;28;1003;-45
2022/05/04 00:20:32;;;;;;;15.40;12.55;;;;;;;8.56;97.19;100975.22;700034;28;1046;-45
2022/05/04 00:20:53;;;;;;;16.77;12.10;;;;;;;8.56;97.05;100975.22;698979;28;1257;-45
2022/05/04 00:21:13;;;;;;;16.43;11.90;;;;;;;8.60;96.08;100974.34;699525;28;1320;-44
2022/05/04 00:21:33;;;;;;;15.57;11.77;;;;;;;8.58;96.44;100976.09;698759;28;1331;-45
2022/05/04 00:21:54;;;;;;;17.55;12.48;;;;;;;8.54;98.48;100974.31;699215;28;940;-45
2022/05/04 00:22:18;;;;;;;20.17;13.20;;;;;;;8.48;99.61;100973.41;698674;27;4210;-45
2022/05/04 00:22:38;;;;;;;16.40;12.93;;;;;;;8.51;97.38;100973.44;700302;28;1218;-45
2022/05/04 00:22:59;;;;;;;15.23;11.73;;;;;;;8.59;96.77;100977.84;699084;28;1002;-45
2022/05/04 00:23:19;;;;;;;15.37;11.57;;;;;;;8.60;96.61;100979.56;697386;28;1435;-44
2022/05/04 00:23:39;;;;;;;15.43;11.65;;;;;;;8.58;97.22;100973.50;699897;28;1073;-46
2022/05/04 00:24:00;;;;;;;15.37;11.53;;;;;;;8.57;98.17;100982.16;698898;28;1918;-45
2022/05/04 00:24:20;;;;;;;16.17;12.35;;;;;;;8.51;98.84;100973.44;697404;28;1125;-44
2022/05/04 00:24:40;;;;;;;16.50;12.53;;;;;;;8.46;99.31;100971.63;697948;28;1102;-44
2022/05/04 00:25:02;;;;;;;15.03;12.33;;;;;;;8.43;99.60;100972.47;695682;28;1149;-45
2022/05/04 00:25:22;;;;;;;15.45;12.30;;;;;;;8.42;100.00;100973.31;696792;28;4446;-45
2022/05/04 00:25:43;;;;;;;16.27;12.47;;;;;;;8.40;100.00;100975.03;695344;28;1222;-45
2022/05/04 00:26:03;;;;;;;16.30;12.75;;;;;;;8.39;100.00;100975.00;697626;28;1097;-46
2022/05/04 00:26:23;;;;;;;15.67;12.37;;;;;;;8.41;99.45;100975.91;699585;28;1022;-45
2022/05/04 00:26:44;;;;;;;15.43;12.20;;;;;;;8.42;99.00;100972.44;698182;28;1187;-46
2022/05/04 00:27:04;;;;;;;15.73;12.20;;;;;;;8.44;98.75;100978.53;701341;28;1136;-44
2022/05/04 00:27:25;;;;;;;16.40;12.10;;;;;;;8.44;98.93;100970.72;697575;28;1430;-45
2022/05/04 00:27:45;;;;;;;16.87;12.47;;;;;;;8.38;100.00;100974.16;693677;28;1274;-45
2022/05/04 00:28:06;;;;;;;18.08;12.23;;;;;;;8.36;100.00;100975.84;691838;28;1394;-46
2022/05/04 00:28:27;;;;;;;19.53;12.63;;;;;;;8.33;100.00;100975.84;691288;28;4242;-45
2022/05/04 00:28:48;;;;;;;17.23;12.10;;;;;;;8.34;98.83;100970.63;692999;28;992;-45
2022/05/04 00:29:08;;;;;;;16.77;12.20;;;;;;;8.34;99.15;100970.63;692120;28;1205;-45
2022/05/04 00:29:28;;;;;;;16.13;12.30;;;;;;;8.33;99.35;100965.41;696974;28;1047;-45
2022/05/04 00:29:49;;;;;;;16.90;11.90;;;;;;;8.34;98.95;100970.63;698388;28;1113;-45
2022/05/04 00:30:09;;;;;;;15.57;11.60;;;;;;;8.36;99.70;100968.03;701808;28;1137;-46
2022/05/04 00:30:30;;;;;;;15.07;12.15;;;;;;;8.41;99.66;100971.56;701887;28;1244;-45
2022/05/04 00:30:52;;;;;;;16.15;12.20;;;;;;;8.41;99.50;100970.72;698547;28;1165;-46
2022/05/04 00:31:12;;;;;;;16.58;11.80;;;;;;;8.40;99.55;100975.03;699362;27;4477;-46
2022/05/04 00:31:33;;;;;;;15.07;11.37;;;;;;;8.38;99.04;100968.94;698670;28;1304;-45
2022/05/04 00:31:53;;;;;;;14.88;11.70;;;;;;;8.37;98.48;100972.41;699669;27;1243;-46
2022/05/04 00:32:16;;;;;;;15.70;11.50;;;;;;;8.43;97.09;100971.56;698961;28;1271;-45
2022/05/04 00:32:37;;;;;;;16.25;11.05;;;;;;;8.47;96.37;100970.78;699072;28;1203;-45
2022/05/04 00:32:59;;;;;;;16.63;11.60;;;;;;;8.46;97.51;100966.41;700971;28;1209;-44
2022/05/04 00:33:19;;;;;;;16.30;11.93;;;;;;;8.42;97.50;100970.72;699456;28;1220;-45
2022/05/04 00:33:40;;;;;;;15.60;11.93;;;;;;;8.47;96.63;100965.56;699569;28;1583;-45
2022/05/04 00:34:00;;;;;;;15.33;11.60;;;;;;;8.44;98.17;100973.34;696074;28;1385;-45
2022/05/04 00:34:20;;;;;;;15.73;11.93;;;;;;;8.39;98.96;100968.09;695280;28;4875;-45
2022/05/04 00:34:41;;;;;;;15.57;11.90;;;;;;;8.31;99.98;100962.81;696159;28;1090;-44
2022/05/04 00:35:01;;;;;;;16.70;12.33;;;;;;;8.31;100.00;100969.75;700071;28;1069;-44
2022/05/04 00:35:22;;;;;;;16.35;12.55;;;;;;;8.30;99.72;100968.84;699607;28;1152;-45
2022/05/04 00:35:42;;;;;;;14.80;11.63;;;;;;;8.32;98.38;100966.25;699840;28;1171;-45
2022/05/04 00:36:03;;;;;;;15.60;11.98;;;;;;;8.32;99.44;100961.94;699133;28;1031;-44
2022/05/04 00:36:23;;;;;;;16.83;12.00;;;;;;;8.23;100.00;100961.00;699800;28;1069;-45
2022/05/04 00:36:43;;;;;;;16.73;12.00;;;;;;;8.18;100.00;100966.13;700265;28;1150;-45
2022/05/04 00:37:04;;;;;;;17.90;13.00;;;;;;;8.13;100.00;100971.31;699588;28;1195;-46
2022/05/04 00:37:25;;;;;;;17.10;13.20;;;;;;;8.10;100.00;100967.78;700025;27;4282;-45
2022/05/04 00:37:45;;;;;;;16.27;12.50;;;;;;;8.15;99.86;100971.31;700752;28;1153;-45
2022/05/04 00:38:05;;;;;;;15.67;11.73;;;;;;;8.16;99.61;100970.47;700216;28;1137;-45
2022/05/04 00:38:26;;;;;;;15.43;11.30;;;;;;;8.20;99.13;100967.03;699652;28;1110;-45
2022/05/04 00:38:48;;;;;;;15.38;12.02;;;;;;;8.14;100.00;100970.47;699610;28;1592;-45
2022/05/04 00:39:09;;;;;;;17.43;13.03;;;;;;;8.06;100.00;100974.72;697816;27;4499;-45
2022/05/04 00:39:29;;;;;;;16.53;12.63;;;;;;;8.09;100.00;100974.75;699283;28;1334;-44
2022/05/04 00:39:49;;;;;;;16.23;12.47;;;;;;;8.12;100.00;100977.38;699712;28;1136;-45
2022/05/04 00:40:10;;;;;;;16.20;12.02;;;;;;;8.09;100.00;100969.53;699756;27;4342;-44
2022/05/04 00:40:30;;;;;;;17.33;12.77;;;;;;;8.08;100.00;100970.38;699368;28;1082;-44
2022/05/04 00:40:50;;;;;;;17.75;13.02;;;;;;;8.10;100.00;100971.28;700750;28;1191;-44
2022/05/04 00:41:11;;;;;;;16.37;12.67;;;;;;;8.09;100.00;100969.53;700298;28;1129;-45
2022/05/04 00:41:31;;;;;;;16.30;11.97;;;;;;;8.18;100.00;100976.56;701327;28;1089;-45
2022/05/04 00:41:51;;;;;;;16.17;11.73;;;;;;;8.22;99.50;100970.50;700988;28;1170;-45
2022/05/04 00:42:14;;;;;;;15.87;11.83;;;;;;;8.23;99.58;100966.19;700157;28;1102;-45
2022/05/04 00:42:35;;;;;;;14.20;11.93;;;;;;;8.21;99.99;100965.28;698438;28;1600;-45
2022/05/04 00:42:55;;;;;;;14.73;11.85;;;;;;;8.21;99.17;100962.69;699345;28;1074;-45
2022/05/04 00:43:23;;;;;;;15.50;11.47;;;;;;;8.27;97.72;100967.97;700138;27;4344;-45
2022/05/04 00:43:51;;;;;;;15.75;11.88;;;;;;;8.16;100.00;100973.94;700326;28;1443;-46
2022/05/04 00:44:11;;;;;;;15.18;12.35;;;;;;;8.11;100.00;100972.16;699940;28;1913;-45
2022/05/04 00:44:32;;;;;;;15.50;12.20;;;;;;;8.08;100.00;100978.19;697863;28;1086;-45
2022/05/04 00:44:52;;;;;;;17.73;12.17;;;;;;;8.12;99.01;100969.56;699111;28;1219;-46
2022/05/04 00:45:12;;;;;;;17.63;11.57;;;;;;;8.13;99.73;100971.31;700115;28;1324;-45
2022/05/04 00:45:33;;;;;;;16.23;11.45;;;;;;;8.15;99.72;100977.38;700018;28;1022;-45
2022/05/04 00:45:53;;;;;;;15.10;11.10;;;;;;;8.23;98.41;100964.47;700644;28;1169;-45
2022/05/04 00:46:13;;;;;;;15.20;11.40;;;;;;;8.32;97.14;100974.97;699131;27;4494;-47
2022/05/04 00:46:34;;;;;;;15.23;11.45;;;;;;;8.38;96.39;100971.56;699004;28;1281;-45
2022/05/04 00:46:54;;;;;;;15.47;11.13;;;;;;;8.45;96.18;100968.16;699760;28;1435;-46
2022/05/04 00:47:18;;;;;;;15.23;11.20;;;;;;;8.43;96.90;100967.25;698838;28;1565;-47
2022/05/04 00:47:39;;;;;;;16.55;11.02;;;;;;;8.39;97.78;100973.31;700053;28;1352;-46
2022/05/04 00:47:59;;;;;;;16.17;11.45;;;;;;;8.36;97.67;100973.25;699439;28;1258;-45
2022/05/04 00:48:20;;;;;;;14.87;11.80;;;;;;;8.33;97.54;100973.22;697652;28;1371;-46
2022/05/04 00:48:40;;;;;;;15.68;11.57;;;;;;;8.36;96.72;100962.84;696017;28;1660;-45
2022/05/04 00:49:01;;;;;;;14.87;11.37;;;;;;;8.32;98.31;100971.47;698868;28;1848;-45
2022/05/04 00:49:21;;;;;;;16.20;12.25;;;;;;;8.22;99.36;100972.25;697986;28;4424;-45
2022/05/04 00:49:46;;;;;;;16.33;11.87;;;;;;;8.16;99.39;100971.34;698682;28;1161;-46
2022/05/04 00:50:07;;;;;;;16.13;11.82;;;;;;;8.21;98.06;100978.31;698677;28;1209;-45
2022/05/04 00:50:28;;;;;;;15.50;11.55;;;;;;;8.22;98.79;100969.66;700608;28;1362;-44
2022/05/04 00:50:50;;;;;;;17.15;12.13;;;;;;;8.21;97.96;100968.78;699062;28;1291;-44
2022/05/04 00:51:11;;;;;;;17.63;12.25;;;;;;;8.16;100.00;100979.16;699471;28;1332;-45
2022/05/04 00:51:32;;;;;;;16.83;12.30;;;;;;;8.12;99.33;100969.56;699485;28;994;-45
2022/05/04 00:51:53;;;;;;;15.90;12.13;;;;;;;8.16;98.96;100970.47;700525;28;1348;-45
2022/05/04 00:52:15;;;;;;;17.43;12.33;;;;;;;8.16;98.64;100973.94;699103;27;4300;-45
2022/05/04 00:52:37;;;;;;;18.25;12.38;;;;;;;8.13;99.95;100981.72;699603;28;1543;-44
2022/05/04 00:52:57;;;;;;;17.63;12.48;;;;;;;8.07;100.00;100976.47;698997;28;1145;-47
2022/05/04 00:53:19;;;;;;;17.17;12.53;;;;;;;8.10;99.01;100978.19;698597;28;1229;-45
2022/05/04 00:53:41;;;;;;;18.60;12.07;;;;;;;8.16;97.99;100973.94;699277;28;1172;-45
2022/05/04 00:54:03;;;;;;;17.45;11.95;;;;;;;8.16;99.05;100973.94;698260;28;1578;-46
2022/05/04 00:54:24;;;;;;;15.70;11.77;;;;;;;8.18;98.28;100974.84;698629;28;1235;-45
2022/05/04 00:54:49;;;;;;;15.32;11.60;;;;;;;8.24;97.67;100975.75;699803;28;1258;-45
2022/05/04 00:55:10;;;;;;;15.60;11.48;;;;;;;8.27;97.27;100978.41;697252;28;4380;-45
2022/05/04 00:55:32;;;;;;;14.98;11.50;;;;;;;8.35;97.50;100976.75;700395;28;775;-45
2022/05/04 00:55:53;;;;;;;15.40;11.63;;;;;;;8.29;98.92;100971.44;698960;28;1498;-46
2022/05/04 00:56:14;;;;;;;17.98;12.30;;;;;;;8.25;99.48;100974.88;700023;28;1494;-45
2022/05/04 00:56:34;;;;;;;16.77;12.00;;;;;;;8.18;100.00;100973.94;700434;28;1478;-44
2022/05/04 00:56:55;;;;;;;17.37;12.63;;;;;;;8.12;100.00;100982.56;698741;28;1415;-45
2022/05/04 00:58:54;;;;;;;17.85;12.80;;;;;;;8.10;100.00;100984.31;698467;28;1387;-44
2022/05/04 00:58:54;;;;;;;15.80;12.00;;;;;;;8.13;98.84;100968.72;699205;28;5008;-45
2022/05/04 00:59:15;;;;;;;16.27;11.55;;;;;;;8.11;100.00;100977.34;697598;28;1556;-44
2022/05/04 00:59:37;;;;;;;16.25;11.90;;;;;;;8.08;99.99;100977.31;700069;28;1492;-44
2022/05/04 00:59:57;;;;;;;16.50;12.30;;;;;;;8.05;100.00;100977.31;700289;28;1176;-45
2022/05/04 01:00:18;;;;;;;16.63;12.20;;;;;;;8.02;100.00;100976.41;700312;28;1300;-45
2022/05/04 01:00:39;;;;;;;15.68;12.00;;;;;;;8.03;100.00;100979.91;700561;28;1412;-44
2022/05/04 01:01:00;;;;;;;15.48;12.00;;;;;;;8.04;100.00;100981.63;698018;28;1305;-45
2022/05/04 01:01:27;;;;;;;14.88;11.77;;;;;;;7.97;100.00;100978.06;698898;28;4330;-47
2022/05/04 01:01:47;;;;;;;16.85;12.20;;;;;;;7.97;100.00;100972.00;699558;28;1228;-44
2022/05/04 01:02:08;;;;;;;18.73;12.33;;;;;;;7.93;100.00;100972.81;698696;28;1216;-44
2022/05/04 01:02:28;;;;;;;17.98;12.70;;;;;;;7.86;100.00;100982.28;699210;28;1228;-44
2022/05/04 01:02:49;;;;;;;16.40;12.30;;;;;;;7.84;100.00;100979.66;700036;28;1224;-45
2022/05/04 01:03:09;;;;;;;16.17;12.20;;;;;;;7.88;100.00;100982.31;698631;28;1251;-45
2022/05/04 01:03:30;;;;;;;15.80;12.07;;;;;;;7.86;100.00;100974.47;697657;28;1640;-44
2022/05/04 01:03:50;;;;;;;17.13;12.23;;;;;;;7.86;100.00;100973.63;696699;28;1248;-44
2022/05/04 01:04:11;;;;;;;16.75;12.35;;;;;;;7.87;100.00;100973.63;694050;28;4291;-44
2022/05/04 01:04:31;;;;;;;17.40;12.50;;;;;;;7.83;100.00;100970.09;693762;28;1284;-45
2022/05/04 01:04:51;;;;;;;16.73;12.03;;;;;;;7.83;100.00;100980.53;694762;28;1344;-44
2022/05/04 01:05:12;;;;;;;19.20;12.70;;;;;;;7.82;100.00;100980.50;690184;28;1430;-45
2022/05/04 01:05:32;;;;;;;17.38;12.23;;;;;;;7.84;100.00;100973.59;695894;28;1335;-45
2022/05/04 01:05:53;;;;;;;15.77;12.10;;;;;;;7.92;100.00;100966.75;696800;28;1467;-45
2022/05/04 01:06:13;;;;;;;15.97;11.97;;;;;;;7.92;100.00;100969.34;699775;28;1300;-48
2022/05/04 01:06:34;;;;;;;14.90;11.67;;;;;;;7.95;100.00;100971.13;699694;28;1086;-45
2022/05/04 01:06:56;;;;;;;15.20;12.10;;;;;;;7.99;99.27;100976.38;698883;28;1363;-44
2022/05/04 01:07:18;;;;;;;15.88;11.75;;;;;;;7.97;99.62;100970.25;697047;28;4469;-47
2022/05/04 01:07:40;;;;;;;16.23;11.57;;;;;;;7.87;100.00;100972.78;693816;28;2156;-45
2022/05/04 01:08:01;;;;;;;17.67;12.00;;;;;;;7.79;100.00;100975.28;695976;28;1216;-45
2022/05/04 01:08:21;;;;;;;15.68;11.70;;;;;;;7.80;100.00;100970.09;695262;28;1289;-46
2022/05/04 01:08:41;;;;;;;14.20;11.50;;;;;;;7.87;100.00;100973.63;696623;28;1339;-45
2022/05/04 01:09:02;;;;;;;15.73;12.10;;;;;;;7.94;100.00;100969.38;696901;28;1213;-45
2022/05/04 01:09:22;;;;;;;16.00;11.90;;;;;;;7.95;100.00;100972.00;699404;28;1194;-45
2022/05/04 01:09:44;;;;;;;16.20;11.95;;;;;;;7.95;100.00;100971.13;698696;28;1189;-44
2022/05/04 01:10:05;;;;;;;16.27;11.95;;;;;;;7.90;100.00;100975.41;699502;28;1184;-44
2022/05/04 01:10:25;;;;;;;15.80;11.30;;;;;;;7.85;100.00;100970.16;699779;27;4239;-45
2022/05/04 01:10:46;;;;;;;17.10;12.10;;;;;;;7.81;100.00;100971.84;699519;28;1153;-45
2022/05/04 01:11:06;;;;;;;18.27;12.60;;;;;;;7.74;100.00;100970.03;700687;28;1153;-44
2022/05/04 01:11:26;;;;;;;17.95;12.95;;;;;;;7.67;100.00;100965.59;700051;28;1232;-46
2022/05/04 01:11:47;;;;;;;18.83;12.63;;;;;;;7.62;100.00;100977.69;699549;28;1295;-46
2022/05/04 01:12:08;;;;;;;17.90;12.38;;;;;;;7.64;100.00;100973.34;701180;28;1247;-45
2022/05/04 01:12:28;;;;;;;15.43;11.90;;;;;;;7.73;100.00;100973.47;699993;28;1198;-45
2022/05/04 01:12:53;;;;;;;16.20;11.80;;;;;;;7.84;100.00;100976.22;699812;28;3680;-44
2022/05/04 01:13:18;;;;;;;16.77;11.23;;;;;;;7.92;99.25;100971.97;699226;27;4649;-45
2022/05/04 01:13:38;;;;;;;16.60;11.38;;;;;;;7.95;98.46;100972.00;699562;28;1252;-44
2022/05/04 01:14:10;;;;;;;15.23;11.30;;;;;;;8.01;98.21;100971.19;699647;28;1345;-46
2022/05/04 01:14:33;;;;;;;16.05;11.60;;;;;;;8.03;97.84;100972.09;699336;28;1474;-45
2022/05/04 01:14:53;;;;;;;16.67;12.73;;;;;;;8.08;97.07;100980.78;696479;28;1494;-45
2022/05/04 01:15:15;;;;;;;16.00;11.97;;;;;;;8.13;97.46;100976.50;697110;28;1406;-45
2022/05/04 01:15:35;;;;;;;16.77;11.73;;;;;;;8.02;99.64;100968.59;698523;28;1439;-46
2022/05/04 01:15:55;;;;;;;16.07;12.17;;;;;;;7.91;100.00;100974.56;699282;28;1307;-46
2022/05/04 01:16:16;;;;;;;15.88;11.88;;;;;;;7.84;100.00;100971.88;699295;27;4517;-44
2022/05/04 01:16:39;;;;;;;16.73;12.37;;;;;;;7.81;100.00;100978.78;700818;28;1573;-45
2022/05/04 01:16:59;;;;;;;17.52;12.85;;;;;;;7.75;100.00;100970.88;699045;28;1291;-45
2022/05/04 01:17:20;;;;;;;15.55;12.00;;;;;;;7.76;100.00;100970.03;698813;28;1233;-45
2022/05/04 01:17:43;;;;;;;16.43;11.97;;;;;;;7.78;99.58;100971.81;698225;28;1162;-45
2022/05/04 01:18:03;;;;;;;15.18;11.55;;;;;;;7.79;100.00;100976.13;698246;28;1292;-46
2022/05/04 01:18:24;;;;;;;16.17;12.10;;;;;;;7.76;100.00;100981.31;700669;28;1436;-45
2022/05/04 01:18:44;;;;;;;14.50;12.13;;;;;;;7.77;100.00;100975.25;700014;28;1709;-45
2022/05/04 01:19:06;;;;;;;15.33;11.90;;;;;;;7.84;99.06;100974.47;700527;28;1328;-45
2022/05/04 01:19:26;;;;;;;15.25;12.00;;;;;;;7.86;100.00;100974.47;698233;27;4412;-45
2022/05/04 01:19:47;;;;;;;15.53;11.90;;;;;;;7.84;100.00;100978.81;700330;28;1311;-45
2022/05/04 01:20:08;;;;;;;15.20;12.38;;;;;;;7.84;100.00;100971.88;699527;28;1450;-44
2022/05/04 01:20:28;;;;;;;15.98;12.50;;;;;;;7.84;100.00;100976.22;699692;28;1372;-44
2022/05/04 01:20:49;;;;;;;15.43;12.13;;;;;;;7.84;100.00;100974.47;700410;28;1391;-45
2022/05/04 01:21:09;;;;;;;16.60;11.52;;;;;;;7.90;100.00;100972.78;699018;28;1344;-46
2022/05/04 01:21:30;;;;;;;15.90;11.63;;;;;;;7.95;99.19;100971.13;700559;28;1418;-44
2022/05/04 01:21:50;;;;;;;15.00;11.57;;;;;;;7.95;99.14;100977.19;697044;28;1354;-46
2022/05/04 01:22:14;;;;;;;15.57;11.90;;;;;;;7.97;98.33;100977.22;697264;28;5364;-46
2022/05/04 01:22:35;;;;;;;15.00;11.75;;;;;;;7.96;99.26;100975.44;699561;28;1220;-44
2022/05/04 01:22:56;;;;;;;14.68;11.77;;;;;;;7.90;100.00;100976.25;699095;28;1454;-45
2022/05/04 01:23:17;;;;;;;16.80;12.57;;;;;;;7.82;100.00;100975.28;699612;28;883;-45
2022/05/04 01:23:38;;;;;;;16.52;12.50;;;;;;;7.82;100.00;100976.19;698719;28;1256;-44
2022/05/04 01:23:59;;;;;;;17.98;12.70;;;;;;;7.75;100.00;100979.56;699103;28;1240;-46
2022/05/04 01:24:19;;;;;;;15.85;12.15;;;;;;;7.62;100.00;100978.53;698802;28;1909;-44
2022/05/04 01:24:40;;;;;;;16.67;12.23;;;;;;;7.54;100.00;100979.31;695878;28;1253;-45
2022/05/04 01:25:02;;;;;;;16.23;12.52;;;;;;;7.44;100.00;100984.38;697183;28;1216;-46
2022/05/04 01:25:23;;;;;;;17.35;12.88;;;;;;;7.42;100.00;100980.00;694858;28;4270;-45
2022/05/04 01:25:44;;;;;;;18.05;12.70;;;;;;;7.40;100.00;100976.53;697533;28;1328;-44
2022/05/04 01:26:05;;;;;;;17.60;12.90;;;;;;;7.41;100.00;100973.09;696673;28;1399;-44
2022/05/04 01:26:26;;;;;;;16.40;13.13;;;;;;;7.36;100.00;100977.34;697711;28;1359;-45
2022/05/04 01:26:46;;;;;;;16.48;12.98;;;;;;;7.38;100.00;100979.13;700264;28;1390;-46
2022/05/04 01:27:11;;;;;;;16.00;12.25;;;;;;;7.41;100.00;100979.16;699319;28;1351;-45
2022/05/04 01:27:32;;;;;;;16.38;12.18;;;;;;;7.41;100.00;100978.28;699453;28;1510;-46
2022/05/04 01:27:52;;;;;;;16.20;12.52;;;;;;;7.39;100.00;100977.38;699580;28;1403;-45
2022/05/04 01:28:13;;;;;;;16.75;12.75;;;;;;;7.36;100.00;100980.81;697818;27;4427;-46
2022/05/04 01:28:33;;;;;;;16.93;13.57;;;;;;;7.30;100.00;100972.94;698296;28;1496;-45
2022/05/04 01:28:54;;;;;;;16.77;13.73;;;;;;;7.25;100.00;100974.59;698910;28;1370;-45
2022/05/04 01:29:15;;;;;;;17.52;13.90;;;;;;;7.20;100.00;100973.63;698445;28;1479;-46
2022/05/04 01:29:35;;;;;;;17.77;13.17;;;;;;;7.20;100.00;100969.34;698740;28;1378;-45
2022/05/04 01:29:55;;;;;;;18.05;13.02;;;;;;;7.24;100.00;100976.31;698233;28;1470;-44
2022/05/04 01:30:16;;;;;;;16.27;12.93;;;;;;;7.32;100.00;100973.81;698760;28;1510;-45
2022/05/04 01:30:36;;;;;;;16.15;12.73;;;;;;;7.40;100.00;100977.38;699375;28;1434;-45
2022/05/04 01:30:57;;;;;;;15.37;12.30;;;;;;;7.45;100.00;100975.72;699008;28;1188;-45
2022/05/04 01:31:19;;;;;;;15.15;12.10;;;;;;;7.46;100.00;100974.88;698965;28;4611;-45
2022/05/04 01:31:40;;;;;;;15.00;12.10;;;;;;;7.55;100.00;100971.53;698307;28;1189;-45
2022/05/04 01:32:01;;;;;;;16.92;12.60;;;;;;;7.56;100.00;100977.59;698522;28;1613;-45
2022/05/04 01:32:21;;;;;;;16.45;12.63;;;;;;;7.55;100.00;100981.94;699098;28;1409;-45
2022/05/04 01:32:41;;;;;;;18.13;12.90;;;;;;;7.55;100.00;100978.47;698976;28;1328;-46
2022/05/04 01:33:03;;;;;;;17.98;13.50;;;;;;;7.53;100.00;100973.22;699812;28;1466;-44
2022/05/04 01:33:23;;;;;;;16.92;13.18;;;;;;;7.54;100.00;100979.31;699152;28;1407;-45
2022/05/04 01:33:43;;;;;;;17.27;12.83;;;;;;;7.53;100.00;100977.56;697769;28;1312;-44
2022/05/04 01:34:04;;;;;;;17.45;12.68;;;;;;;7.49;100.00;100969.72;694708;28;1335;-46
2022/05/04 01:34:28;;;;;;;16.57;12.67;;;;;;;7.52;100.00;100983.59;696327;28;4291;-45
2022/05/04 01:34:48;;;;;;;16.70;12.70;;;;;;;7.58;100.00;100975.91;698252;28;1153;-45
2022/05/04 01:35:09;;;;;;;15.87;12.23;;;;;;;7.59;100.00;100980.25;699632;28;1438;-45
2022/05/04 01:35:29;;;;;;;16.27;12.13;;;;;;;7.59;100.00;100981.09;698430;28;1319;-44
2022/05/04 01:35:50;;;;;;;15.20;12.00;;;;;;;7.59;100.00;100975.91;698812;28;1339;-44
2022/05/04 01:36:11;;;;;;;15.60;11.80;;;;;;;7.61;100.00;100978.53;698750;28;1351;-46
2022/05/04 01:36:31;;;;;;;15.27;11.90;;;;;;;7.63;100.00;100974.22;699596;28;1297;-44
2022/05/04 01:36:51;;;;;;;15.17;11.47;;;;;;;7.65;99.82;100973.38;700415;28;1457;-46
2022/05/04 01:37:12;;;;;;;14.20;11.20;;;;;;;7.71;99.43;100979.50;699627;27;4521;-45
2022/05/04 01:37:33;;;;;;;15.00;11.80;;;;;;;7.74;99.62;100976.94;698786;28;1300;-45
2022/05/04 01:37:53;;;;;;;16.23;12.82;;;;;;;7.66;100.00;100979.47;698770;28;1451;-44
2022/05/04 01:38:13;;;;;;;17.47;13.17;;;;;;;7.60;100.00;100974.16;698934;28;1379;-44
2022/05/04 01:38:35;;;;;;;17.35;13.38;;;;;;;7.54;100.00;100976.72;699264;28;1125;-45
2022/05/04 01:38:55;;;;;;;16.90;13.43;;;;;;;7.46;100.00;100979.19;698019;28;1351;-45
2022/05/04 01:39:15;;;;;;;14.53;12.20;;;;;;;7.48;100.00;100978.38;698738;28;1517;-44